Terminal Aerodrome Forecast
Issued by NWS Austin/San Antonio, TX

Home | Current Version | Previous Version | Text Only | Print | Product List | Glossary On
Versions: 1 2 3 4 5 6 7 8 9 10 11 12 13 14 15 16 17 18 19 20 21 22 23 24 25 26 27 28
000
FTUS44 KEWX 262334
TAFSAT
TAF
KSAT 262334Z 2700/2806 15012KT P6SM SCT060
      TEMPO 2700/2701 16020G30KT
     FM270900 17005KT P6SM SCT015
     FM271400 18010KT P6SM SCT030=

USA.gov is the U.S. government's official web portal to all federal, state and local government web resources and services.